Archer, Nebraska
Current Conditions -  °F | °C
As of 8:53 AM on Wednesday 26 Nov 2014 (Local Time) from KGRI Reporting Station
Overcast Overcast  
Wind Chill: 14°   Ceiling: 1500
Heat Index: 28°   Visibility: 10mi
Dew Point: 21°   Wind: 24mph
Humidity: 75%   Direction: 330°NNW
Pressure: 30.13"   Gusts: 35mph
Location:  41.17°N, 98.14°W
Report Text: KGRI 261453Z 33021G30KT 10SM OVC015 M02/M06 A3013 RMK AO2 PK WND 33038/1356 SLP221 T10221061 51046
Loading
Personal Weather Stations






























Interactive Weather Map New forecast layout! Learn more

10-Day Weather Forecast

Advertisements
Track Severe Weather on mobile